Time;durP1;ratioP1;P1;durP2;ratioP2;P2;SDS_P1;SDS_P2;PMS_P1;PMS_P2;Temp;Humidity;BMP_temperature;BMP_pressure;BME280_temperature;BME280_humidity;BME280_pressure;Samples;Min_cycle;Max_cycle;Signal;HPM_P1;HPM_P2
2023/07/12 00:02:17;;;;;;;4.37;2.40;;;;;;;;;;5024675;28;20180;-91
2023/07/12 00:04:43;;;;;;;2.53;2.20;;;;;;;;;;5031552;28;20253;-91
2023/07/12 00:07:13;;;;;;;4.28;2.35;;;;;;;;;;5047567;28;20329;-92
2023/07/12 00:09:39;;;;;;;2.70;2.23;;;;;;;;;;5054150;28;20345;-91
2023/07/12 00:12:05;;;;;;;3.43;2.20;;;;;;;;;;5023560;28;20216;-91
2023/07/12 00:14:34;;;;;;;3.97;2.33;;;;;;;;;;5046093;28;20215;-92
2023/07/12 00:17:00;;;;;;;5.67;2.40;;;;;;;;;;5048449;28;20266;-93
2023/07/12 00:19:26;;;;;;;3.50;2.40;;;;;;;;;;5053546;28;20192;-91
2023/07/12 00:21:54;;;;;;;3.37;2.27;;;;;;;;;;5052505;28;20196;-92
2023/07/12 00:24:20;;;;;;;3.63;2.40;;;;;;;;;;5036476;28;20184;-91
2023/07/12 00:26:46;;;;;;;3.53;2.40;;;;;;;;;;5021121;28;20235;-92
2023/07/12 00:29:12;;;;;;;4.20;2.37;;;;;;;;;;5022933;28;20210;-92
2023/07/12 00:31:41;;;;;;;3.90;2.83;;;;;;;;;;5052043;28;20211;-91
2023/07/12 00:34:07;;;;;;;3.83;2.50;;;;;;;;;;5051860;28;20305;-92
2023/07/12 00:36:33;;;;;;;3.60;2.53;;;;;;;;;;5033765;28;20184;-91
2023/07/12 00:39:00;;;;;;;5.40;2.57;;;;;;;;;;5035466;28;20183;-89
2023/07/12 00:41:26;;;;;;;3.17;2.50;;;;;;;;;;5051078;28;20184;-90
2023/07/12 00:44:15;;;;;;;5.33;2.60;;;;;;;;;;5050249;28;20187;-91
2023/07/12 00:46:47;;;;;;;7.03;2.77;;;;;;;;;;5041262;28;20215;-89
2023/07/12 00:49:14;;;;;;;6.90;3.00;;;;;;;;;;5051105;28;20180;-90
2023/07/12 00:51:46;;;;;;;7.00;3.10;;;;;;;;;;5052134;28;20215;-91
2023/07/12 00:54:16;;;;;;;4.20;3.10;;;;;;;;;;5051702;28;20201;-91
2023/07/12 00:56:46;;;;;;;5.37;3.00;;;;;;;;;;5051802;28;20180;-89
2023/07/12 00:59:18;;;;;;;4.50;2.70;;;;;;;;;;5051463;28;20188;-90
2023/07/12 01:01:44;;;;;;;4.87;3.00;;;;;;;;;;5050522;28;20184;-90
2023/07/12 01:04:12;;;;;;;4.47;3.10;;;;;;;;;;5052053;28;20187;-91
2023/07/12 01:06:41;;;;;;;6.33;2.67;;;;;;;;;;5048589;28;20593;-91
2023/07/12 01:09:11;;;;;;;7.10;3.27;;;;;;;;;;5050472;28;20184;-91
2023/07/12 01:11:40;;;;;;;6.80;3.33;;;;;;;;;;5037826;28;20211;-92
2023/07/12 01:14:11;;;;;;;4.90;3.20;;;;;;;;;;5052222;28;20176;-92
2023/07/12 01:16:38;;;;;;;5.40;3.13;;;;;;;;;;5049470;28;20192;-89
2023/07/12 01:19:04;;;;;;;6.30;3.00;;;;;;;;;;5052220;28;20184;-91
2023/07/12 01:21:33;;;;;;;5.03;3.20;;;;;;;;;;5051824;28;20191;-88
2023/07/12 01:23:59;;;;;;;7.13;3.07;;;;;;;;;;5052278;28;20192;-89
2023/07/12 01:26:39;;;;;;;6.63;3.13;;;;;;;;;;5048070;28;20274;-90
2023/07/12 01:29:06;;;;;;;4.60;3.10;;;;;;;;;;5039799;28;20277;-90
2023/07/12 01:31:36;;;;;;;7.37;3.47;;;;;;;;;;5049156;28;20219;-91
2023/07/12 01:34:02;;;;;;;8.53;3.13;;;;;;;;;;5052440;28;20275;-90
2023/07/12 01:36:29;;;;;;;5.83;2.80;;;;;;;;;;5051150;28;20176;-90
2023/07/12 01:38:59;;;;;;;7.90;3.30;;;;;;;;;;5051483;28;20279;-89
2023/07/12 01:41:25;;;;;;;6.67;3.00;;;;;;;;;;5051392;28;20180;-90
2023/07/12 01:43:52;;;;;;;8.17;3.40;;;;;;;;;;5051897;28;20279;-90
2023/07/12 01:46:18;;;;;;;7.93;3.27;;;;;;;;;;5051531;28;20184;-91
2023/07/12 01:48:44;;;;;;;6.30;3.60;;;;;;;;;;5051612;28;20337;-91
2023/07/12 01:51:11;;;;;;;6.70;3.17;;;;;;;;;;5050914;28;20268;-90
2023/07/12 01:53:40;;;;;;;7.03;3.20;;;;;;;;;;5032329;28;20181;-91
2023/07/12 01:56:06;;;;;;;7.63;3.03;;;;;;;;;;5044121;28;20176;-90
2023/07/12 01:58:33;;;;;;;8.03;3.37;;;;;;;;;;5051224;28;20181;-91
2023/07/12 02:01:01;;;;;;;7.83;3.53;;;;;;;;;;5042992;28;20193;-90
2023/07/12 02:03:27;;;;;;;8.70;3.43;;;;;;;;;;5044355;28;20272;-89
2023/07/12 02:05:54;;;;;;;7.20;3.50;;;;;;;;;;5044823;28;20176;-92
2023/07/12 02:08:20;;;;;;;9.30;3.70;;;;;;;;;;5037860;28;20184;-89
2023/07/12 02:10:49;;;;;;;6.73;3.17;;;;;;;;;;5044111;28;20216;-90
2023/07/12 02:13:16;;;;;;;7.60;3.40;;;;;;;;;;5054822;28;20188;-90
2023/07/12 02:15:45;;;;;;;11.20;3.87;;;;;;;;;;5042886;28;20183;-88
2023/07/12 02:18:12;;;;;;;8.73;3.33;;;;;;;;;;5039228;28;20188;-91
2023/07/12 02:20:39;;;;;;;11.50;3.77;;;;;;;;;;5041239;28;20184;-88
2023/07/12 02:23:08;;;;;;;8.23;3.47;;;;;;;;;;5054304;28;20188;-87
2023/07/12 02:25:41;;;;;;;7.93;3.53;;;;;;;;;;5040937;28;20197;-87
2023/07/12 02:28:07;;;;;;;8.80;3.57;;;;;;;;;;5046026;28;20228;-89
2023/07/12 02:30:33;;;;;;;7.10;3.47;;;;;;;;;;5053582;28;20208;-88
2023/07/12 02:32:59;;;;;;;9.27;3.77;;;;;;;;;;5053680;28;20192;-88
2023/07/12 02:35:29;;;;;;;10.30;4.00;;;;;;;;;;5053395;28;20180;-89
2023/07/12 02:37:56;;;;;;;9.27;3.67;;;;;;;;;;5041869;28;20192;-87
2023/07/12 02:40:24;;;;;;;8.07;3.80;;;;;;;;;;5026506;28;20192;-88
2023/07/12 02:42:52;;;;;;;8.23;3.30;;;;;;;;;;5042262;28;20189;-88
2023/07/12 02:45:18;;;;;;;9.63;3.70;;;;;;;;;;5038684;28;20184;-87
2023/07/12 02:47:44;;;;;;;9.93;4.00;;;;;;;;;;5053542;28;20207;-88
2023/07/12 02:50:13;;;;;;;8.13;3.70;;;;;;;;;;5054120;28;20184;-87
2023/07/12 02:52:39;;;;;;;8.77;3.60;;;;;;;;;;5052949;28;20191;-87
2023/07/12 02:55:05;;;;;;;8.67;3.30;;;;;;;;;;5053773;28;20184;-86
2023/07/12 02:57:35;;;;;;;10.97;3.33;;;;;;;;;;5053909;28;20219;-86
2023/07/12 03:00:01;;;;;;;7.20;2.60;;;;;;;;;;5052225;28;20183;-87
2023/07/12 03:02:29;;;;;;;7.80;2.90;;;;;;;;;;5052509;28;20180;-88
2023/07/12 03:04:57;;;;;;;5.57;2.63;;;;;;;;;;5052875;28;20180;-86
2023/07/12 03:07:23;;;;;;;7.70;2.77;;;;;;;;;;5046531;28;20235;-86
2023/07/12 03:09:49;;;;;;;5.67;2.70;;;;;;;;;;5035173;28;20173;-87
2023/07/12 03:12:18;;;;;;;9.30;3.40;;;;;;;;;;5037177;28;20299;-87
2023/07/12 03:14:44;;;;;;;7.17;3.10;;;;;;;;;;5040351;28;20180;-86
2023/07/12 03:17:10;;;;;;;7.33;2.80;;;;;;;;;;5053439;28;20176;-87
2023/07/12 03:19:36;;;;;;;7.43;3.27;;;;;;;;;;5053799;28;20183;-87
2023/07/12 03:22:05;;;;;;;10.53;3.40;;;;;;;;;;5049489;28;20223;-87
2023/07/12 03:24:31;;;;;;;10.30;3.20;;;;;;;;;;5041995;28;20203;-87
2023/07/12 03:26:57;;;;;;;7.70;3.03;;;;;;;;;;5031612;28;20246;-87
2023/07/12 03:29:26;;;;;;;7.00;3.17;;;;;;;;;;5033752;28;20193;-87
2023/07/12 03:31:52;;;;;;;7.83;3.30;;;;;;;;;;5040793;28;20204;-87
2023/07/12 03:34:18;;;;;;;10.83;3.50;;;;;;;;;;5043073;28;20187;-87
2023/07/12 03:36:44;;;;;;;6.67;3.00;;;;;;;;;;5052190;28;20184;-87
2023/07/12 03:39:12;;;;;;;6.73;3.20;;;;;;;;;;5052435;28;20188;-87
2023/07/12 03:41:39;;;;;;;5.93;2.83;;;;;;;;;;5053288;28;20187;-87
2023/07/12 03:44:05;;;;;;;6.77;3.00;;;;;;;;;;5053055;28;20184;-88
2023/07/12 03:46:33;;;;;;;7.83;2.90;;;;;;;;;;5053227;28;20180;-87
2023/07/12 03:48:59;;;;;;;6.37;2.70;;;;;;;;;;5051510;28;20214;-87
2023/07/12 03:51:25;;;;;;;7.13;3.20;;;;;;;;;;5035121;28;20218;-86
2023/07/12 03:53:56;;;;;;;6.40;3.40;;;;;;;;;;5031160;28;20238;-87
2023/07/12 03:56:22;;;;;;;6.43;3.27;;;;;;;;;;5046084;28;20187;-87
2023/07/12 03:58:48;;;;;;;7.77;3.13;;;;;;;;;;5053296;28;20270;-87
2023/07/12 04:01:18;;;;;;;6.83;3.40;;;;;;;;;;5052553;28;20184;-86
2023/07/12 04:03:44;;;;;;;6.27;3.50;;;;;;;;;;5038377;28;20214;-87
2023/07/12 04:06:17;;;;;;;8.43;3.70;;;;;;;;;;5033313;28;20219;-87
2023/07/12 04:08:44;;;;;;;8.23;4.27;;;;;;;;;;5047791;28;20188;-86
2023/07/12 04:11:18;;;;;;;6.70;4.30;;;;;;;;;;5033037;28;20248;-87
2023/07/12 04:13:44;;;;;;;7.53;4.83;;;;;;;;;;5047404;28;20175;-87
2023/07/12 04:16:15;;;;;;;9.83;5.17;;;;;;;;;;5052476;28;20183;-86
2023/07/12 04:18:41;;;;;;;10.43;5.57;;;;;;;;;;5053471;28;20238;-88
2023/07/12 04:21:08;;;;;;;9.97;5.30;;;;;;;;;;5053066;28;20179;-87
2023/07/12 04:23:36;;;;;;;10.07;6.47;;;;;;;;;;5052599;28;20278;-87
2023/07/12 04:26:03;;;;;;;12.47;7.00;;;;;;;;;;5053477;28;20192;-86
2023/07/12 04:28:33;;;;;;;12.37;7.50;;;;;;;;;;5055290;28;20211;-86
2023/07/12 04:31:03;;;;;;;11.97;8.20;;;;;;;;;;5053215;28;20218;-86
2023/07/12 04:33:32;;;;;;;11.27;8.30;;;;;;;;;;5045516;28;20214;-87
2023/07/12 04:35:58;;;;;;;10.87;8.93;;;;;;;;;;5047886;28;20232;-86
2023/07/12 04:38:24;;;;;;;13.77;9.63;;;;;;;;;;5056643;28;20259;-86
2023/07/12 04:40:55;;;;;;;13.13;10.30;;;;;;;;;;5056789;28;20183;-88
2023/07/12 04:43:21;;;;;;;13.53;11.03;;;;;;;;;;5046952;28;20188;-85
2023/07/12 04:45:47;;;;;;;14.80;10.77;;;;;;;;;;5048921;28;20187;-86
2023/07/12 04:48:16;;;;;;;13.87;11.13;;;;;;;;;;5056886;28;20235;-86
2023/07/12 04:50:42;;;;;;;15.70;12.50;;;;;;;;;;5058651;28;20203;-86
2023/07/12 04:53:14;;;;;;;16.83;12.60;;;;;;;;;;5041888;28;20183;-87
2023/07/12 04:55:40;;;;;;;15.60;12.43;;;;;;;;;;5039584;28;20186;-85
2023/07/12 04:58:09;;;;;;;18.57;12.73;;;;;;;;;;5054679;28;20172;-85
2023/07/12 05:00:37;;;;;;;20.00;12.50;;;;;;;;;;5055150;28;20183;-85
2023/07/12 05:03:03;;;;;;;20.17;13.47;;;;;;;;;;5051847;28;20191;-85
2023/07/12 05:05:34;;;;;;;17.03;14.07;;;;;;;;;;5056258;28;20175;-85
2023/07/12 05:08:00;;;;;;;16.40;14.20;;;;;;;;;;5037095;28;20274;-85
2023/07/12 05:10:29;;;;;;;19.10;14.37;;;;;;;;;;5036448;28;20203;-86
2023/07/12 05:12:55;;;;;;;20.83;15.53;;;;;;;;;;5040624;28;20175;-86
2023/07/12 05:15:21;;;;;;;18.83;14.80;;;;;;;;;;5040033;28;20180;-86
2023/07/12 05:17:48;;;;;;;20.17;14.80;;;;;;;;;;5039625;28;20186;-86
2023/07/12 05:20:14;;;;;;;19.87;14.83;;;;;;;;;;5056197;28;20269;-86
2023/07/12 05:22:43;;;;;;;21.53;16.17;;;;;;;;;;5040826;28;20184;-92
2023/07/12 05:25:12;;;;;;;19.27;15.33;;;;;;;;;;5053399;28;20180;-91
2023/07/12 05:27:41;;;;;;;17.93;14.50;;;;;;;;;;5070531;28;20211;-89
2023/07/12 05:30:07;;;;;;;17.63;15.37;;;;;;;;;;5065512;28;20172;-90
2023/07/12 05:32:33;;;;;;;20.47;15.10;;;;;;;;;;5070187;28;20195;-90
2023/07/12 05:35:03;;;;;;;22.37;14.13;;;;;;;;;;5066910;28;20183;-91
2023/07/12 05:37:29;;;;;;;18.90;14.63;;;;;;;;;;5069192;28;20200;-89
2023/07/12 05:40:03;;;;;;;15.90;14.20;;;;;;;;;;5072657;28;20180;-90
2023/07/12 05:42:29;;;;;;;18.13;13.47;;;;;;;;;;5074822;28;20175;-91
2023/07/12 05:44:55;;;;;;;16.93;12.90;;;;;;;;;;5070286;28;20180;-91
2023/07/12 05:47:26;;;;;;;19.43;12.50;;;;;;;;;;5052600;28;20196;-93
2023/07/12 05:49:56;;;;;;;17.87;12.70;;;;;;;;;;5043792;28;20176;-91
2023/07/12 05:52:22;;;;;;;18.90;12.80;;;;;;;;;;5045289;28;20237;-92
2023/07/12 05:54:48;;;;;;;15.43;11.83;;;;;;;;;;5061704;28;20187;-91
2023/07/12 05:57:15;;;;;;;17.73;11.30;;;;;;;;;;5064377;28;20188;-92
2023/07/12 05:59:43;;;;;;;20.17;10.97;;;;;;;;;;5047882;28;20184;-91
2023/07/12 06:02:39;;;;;;;15.27;9.73;;;;;;;;;;5045210;28;20219;-92
2023/07/12 06:05:18;;;;;;;;;;;;;;;;;;;;;
2023/07/12 06:07:56;;;;;;;15.67;9.37;;;;;;;;;;5068619;28;20207;-92
2023/07/12 06:13:47;;;;;;;13.63;8.67;;;;;;;;;;5054651;28;20187;-93
2023/07/12 06:16:16;;;;;;;15.53;8.77;;;;;;;;;;5056874;28;20203;-91
2023/07/12 06:18:42;;;;;;;13.30;8.00;;;;;;;;;;5058004;28;20184;-93
2023/07/12 06:21:09;;;;;;;9.60;7.73;;;;;;;;;;5057564;28;20266;-91
2023/07/12 06:23:38;;;;;;;14.53;7.73;;;;;;;;;;5057861;28;20180;-92
2023/07/12 06:26:05;;;;;;;13.03;7.90;;;;;;;;;;5062199;28;20191;-90
2023/07/12 06:28:31;;;;;;;12.33;6.97;;;;;;;;;;5061426;28;20259;-92
2023/07/12 06:31:01;;;;;;;13.73;7.53;;;;;;;;;;5060970;28;20278;-91
2023/07/12 06:33:27;;;;;;;14.57;7.90;;;;;;;;;;5057031;28;20195;-90
2023/07/12 06:35:53;;;;;;;13.50;7.80;;;;;;;;;;5049284;28;20321;-91
2023/07/12 06:38:24;;;;;;;11.87;6.77;;;;;;;;;;5049843;28;20187;-92
2023/07/12 06:40:50;;;;;;;10.27;6.47;;;;;;;;;;5071695;28;20210;-88
2023/07/12 06:43:19;;;;;;;10.03;6.87;;;;;;;;;;5043578;28;20199;-89
2023/07/12 06:45:45;;;;;;;14.00;6.63;;;;;;;;;;5046779;28;20187;-88
2023/07/12 06:48:14;;;;;;;13.87;6.70;;;;;;;;;;5058354;28;20192;-88
2023/07/12 06:50:40;;;;;;;12.13;6.97;;;;;;;;;;5049318;28;20222;-89
2023/07/12 06:53:08;;;;;;;11.67;6.67;;;;;;;;;;5048169;28;20187;-89
2023/07/12 06:55:35;;;;;;;14.13;6.03;;;;;;;;;;5057275;28;20188;-90
2023/07/12 06:58:08;;;;;;;13.83;6.63;;;;;;;;;;5056995;28;20184;-89
2023/07/12 07:00:34;;;;;;;12.13;6.67;;;;;;;;;;5051408;28;20191;-89
2023/07/12 07:03:00;;;;;;;13.10;7.07;;;;;;;;;;5048101;28;20187;-88
2023/07/12 07:05:26;;;;;;;13.93;6.50;;;;;;;;;;5051961;28;20329;-89
2023/07/12 07:07:52;;;;;;;12.97;6.83;;;;;;;;;;5036286;28;20266;-89
2023/07/12 07:10:19;;;;;;;13.30;6.70;;;;;;;;;;5058231;28;20207;-90
2023/07/12 07:12:47;;;;;;;11.63;6.50;;;;;;;;;;5057304;28;20184;-90
2023/07/12 07:15:13;;;;;;;10.97;6.47;;;;;;;;;;5058502;28;20232;-89
2023/07/12 07:17:40;;;;;;;10.57;6.80;;;;;;;;;;5058215;28;20226;-87
2023/07/12 07:20:06;;;;;;;12.80;7.20;;;;;;;;;;5059037;28;20186;-90
2023/07/12 07:22:33;;;;;;;12.90;7.30;;;;;;;;;;5022229;28;20238;-91
2023/07/12 07:24:59;;;;;;;13.00;6.93;;;;;;;;;;5024059;28;20183;-88
2023/07/12 07:27:25;;;;;;;12.60;7.43;;;;;;;;;;5033865;28;20331;-92
2023/07/12 07:29:53;;;;;;;15.13;7.60;;;;;;;;;;5039297;28;20180;-89
2023/07/12 07:32:19;;;;;;;13.80;7.57;;;;;;;;;;5018370;28;20262;-91
2023/07/12 07:34:45;;;;;;;12.93;7.67;;;;;;;;;;5020145;28;20278;-91
2023/07/12 07:37:11;;;;;;;15.67;7.53;;;;;;;;;;5038310;28;20179;-90
2023/07/12 07:39:39;;;;;;;10.10;7.30;;;;;;;;;;5021546;28;20260;-89
2023/07/12 07:42:05;;;;;;;11.63;7.03;;;;;;;;;;5041321;28;20192;-90
2023/07/12 07:44:32;;;;;;;15.93;7.43;;;;;;;;;;5019108;28;20198;-91
2023/07/12 07:46:58;;;;;;;12.07;7.20;;;;;;;;;;5020638;28;20192;-90
2023/07/12 07:49:25;;;;;;;15.33;7.13;;;;;;;;;;5042249;28;20210;-90
2023/07/12 07:51:51;;;;;;;12.00;7.33;;;;;;;;;;5033832;28;20212;-90
2023/07/12 07:54:17;;;;;;;16.33;7.23;;;;;;;;;;5031481;28;20181;-90
2023/07/12 07:56:43;;;;;;;12.87;6.83;;;;;;;;;;5026737;28;20191;-90
2023/07/12 07:59:12;;;;;;;11.57;6.63;;;;;;;;;;5029668;28;20184;-88
2023/07/12 08:01:38;;;;;;;11.20;6.50;;;;;;;;;;5028217;28;20195;-90
2023/07/12 08:04:05;;;;;;;11.50;5.77;;;;;;;;;;5014948;28;20187;-90
2023/07/12 08:06:35;;;;;;;13.30;6.30;;;;;;;;;;5037611;28;20188;-90
2023/07/12 08:09:17;;;;;;;;;;;;;;;;;;;;;
2023/07/12 08:11:46;;;;;;;10.20;6.10;;;;;;;;;;5050447;28;20207;-91
2023/07/12 08:14:22;;;;;;;12.60;5.87;;;;;;;;;;5049454;28;20176;-92
2023/07/12 08:16:48;;;;;;;10.77;5.77;;;;;;;;;;5029961;28;20219;-91
2023/07/12 08:19:15;;;;;;;10.70;5.20;;;;;;;;;;5031027;28;20279;-90
2023/07/12 08:21:42;;;;;;;11.17;5.90;;;;;;;;;;5027296;28;20188;-90
2023/07/12 08:24:08;;;;;;;13.07;5.87;;;;;;;;;;5034322;28;20187;-91
2023/07/12 08:26:34;;;;;;;13.10;5.80;;;;;;;;;;5037762;28;20227;-92
2023/07/12 08:29:15;;;;;;;14.27;6.47;;;;;;;;;;5056939;28;20207;-90
2023/07/12 08:31:41;;;;;;;11.37;6.00;;;;;;;;;;5043738;28;20222;-91
2023/07/12 08:34:07;;;;;;;14.33;6.77;;;;;;;;;;5056202;28;20198;-89
2023/07/12 08:36:35;;;;;;;11.03;7.07;;;;;;;;;;5055851;28;20179;-89
2023/07/12 08:39:02;;;;;;;12.03;6.57;;;;;;;;;;5053667;28;20211;-90
2023/07/12 08:41:29;;;;;;;14.07;6.70;;;;;;;;;;5050376;28;20195;-89
2023/07/12 08:44:06;;;;;;;11.93;6.50;;;;;;;;;;5041058;28;20246;-87
2023/07/12 08:46:38;;;;;;;13.20;6.03;;;;;;;;;;5042341;28;20263;-87
2023/07/12 08:49:05;;;;;;;12.43;5.70;;;;;;;;;;5046253;28;20187;-86
2023/07/12 08:51:35;;;;;;;11.67;5.13;;;;;;;;;;5044572;28;20211;-87
2023/07/12 08:54:01;;;;;;;9.63;5.13;;;;;;;;;;5055434;28;20176;-87
2023/07/12 08:56:37;;;;;;;12.17;6.77;;;;;;;;;;5056077;28;20174;-87
2023/07/12 08:59:08;;;;;;;13.27;6.07;;;;;;;;;;5051227;28;20190;-87
2023/07/12 09:01:48;;;;;;;12.13;5.43;;;;;;;;;;5055167;28;20199;-84
2023/07/12 09:04:16;;;;;;;12.90;5.90;;;;;;;;;;5036224;28;20190;-86
2023/07/12 09:06:45;;;;;;;12.67;5.13;;;;;;;;;;5036015;28;20176;-87
2023/07/12 09:09:14;;;;;;;13.73;5.40;;;;;;;;;;5045502;28;20179;-86
2023/07/12 09:11:40;;;;;;;12.37;5.63;;;;;;;;;;5049700;28;20207;-86
2023/07/12 09:14:13;;;;;;;11.63;4.60;;;;;;;;;;5059721;28;20199;-86
2023/07/12 09:16:40;;;;;;;9.53;4.67;;;;;;;;;;5053299;28;20185;-86
2023/07/12 09:20:08;;;;;;;12.90;4.83;;;;;;;;;;5024550;28;20176;-88
2023/07/12 09:22:48;;;;;;;10.97;4.87;;;;;;;;;;4986017;28;20183;-87
2023/07/12 09:25:25;;;;;;;12.40;4.50;;;;;;;;;;5041211;28;20229;-85
2023/07/12 09:27:51;;;;;;;12.10;4.57;;;;;;;;;;5059568;28;20226;-84
2023/07/12 09:30:27;;;;;;;8.30;4.40;;;;;;;;;;5059375;28;20175;-87
2023/07/12 09:32:56;;;;;;;10.40;4.10;;;;;;;;;;5059628;28;20187;-86
2023/07/12 09:35:30;;;;;;;6.67;3.87;;;;;;;;;;5059036;28;20229;-85
2023/07/12 09:38:00;;;;;;;10.80;4.07;;;;;;;;;;5059535;28;20180;-85
2023/07/12 09:40:32;;;;;;;9.60;3.80;;;;;;;;;;5059510;28;20183;-85
2023/07/12 09:43:01;;;;;;;10.00;4.40;;;;;;;;;;5044896;28;20199;-85
2023/07/12 09:45:32;;;;;;;8.13;3.97;;;;;;;;;;5039916;28;20176;-85
2023/07/12 09:48:25;;;;;;;9.40;3.97;;;;;;;;;;5039928;28;20186;-86
2023/07/12 09:51:07;;;;;;;10.27;3.45;;;;;;;;;;5039216;28;20219;-87
2023/07/12 09:53:39;;;;;;;9.70;3.17;;;;;;;;;;5040623;28;20195;-87
2023/07/12 09:56:18;;;;;;;10.43;3.13;;;;;;;;;;5057734;28;20180;-86
2023/07/12 09:58:48;;;;;;;10.82;3.55;;;;;;;;;;5058436;28;20228;-86
2023/07/12 10:01:22;;;;;;;11.88;4.15;;;;;;;;;;5051357;28;20247;-86
2023/07/12 10:03:53;;;;;;;12.27;4.63;;;;;;;;;;5059009;28;20321;-85
2023/07/12 10:06:27;;;;;;;9.30;4.13;;;;;;;;;;5057647;28;20187;-85
2023/07/12 10:09:14;;;;;;;8.40;3.83;;;;;;;;;;5039956;28;20187;-85
2023/07/12 10:11:46;;;;;;;10.43;3.55;;;;;;;;;;5057663;28;20228;-90
2023/07/12 10:14:15;;;;;;;9.07;3.47;;;;;;;;;;5051743;28;20187;-89
2023/07/12 10:16:45;;;;;;;8.27;3.30;;;;;;;;;;5039901;28;20195;-92
2023/07/12 10:19:15;;;;;;;6.75;3.60;;;;;;;;;;5039710;28;20176;-91
2023/07/12 10:21:41;;;;;;;10.20;3.65;;;;;;;;;;5039716;28;20180;-89
2023/07/12 10:24:11;;;;;;;8.55;3.63;;;;;;;;;;5055069;28;20187;-91
2023/07/12 10:26:38;;;;;;;7.72;3.17;;;;;;;;;;5062115;28;20223;-91
2023/07/12 10:29:05;;;;;;;8.30;3.50;;;;;;;;;;5059361;28;20203;-89
2023/07/12 10:31:51;;;;;;;7.57;3.60;;;;;;;;;;5059439;28;20218;-88
2023/07/12 10:34:39;;;;;;;8.52;3.80;;;;;;;;;;5059264;28;20178;-89
2023/07/12 10:37:16;;;;;;;13.43;4.20;;;;;;;;;;5059801;28;20268;-90
2023/07/12 10:39:42;;;;;;;8.55;3.85;;;;;;;;;;5059101;28;20195;-90
2023/07/12 10:42:24;;;;;;;9.02;3.72;;;;;;;;;;5059581;28;20270;-90
2023/07/12 10:44:53;;;;;;;9.70;4.05;;;;;;;;;;5054948;28;20175;-89
2023/07/12 10:47:20;;;;;;;9.30;3.75;;;;;;;;;;5055864;28;20187;-89
2023/07/12 10:49:59;;;;;;;15.65;3.80;;;;;;;;;;5052753;28;20254;-89
2023/07/12 10:52:27;;;;;;;8.25;3.88;;;;;;;;;;5070845;28;20240;-91
2023/07/12 10:55:23;;;;;;;8.00;3.88;;;;;;;;;;5055450;28;20183;-90
2023/07/12 10:57:51;;;;;;;10.82;4.10;;;;;;;;;;5052892;28;20188;-91
2023/07/12 11:00:17;;;;;;;11.43;4.32;;;;;;;;;;5059953;28;20183;-90
2023/07/12 11:02:50;;;;;;;10.50;3.97;;;;;;;;;;5064563;28;20213;-89
2023/07/12 11:05:34;;;;;;;8.98;3.83;;;;;;;;;;5058325;28;20176;-91
2023/07/12 11:08:03;;;;;;;13.65;3.83;;;;;;;;;;5042908;28;20183;-91
2023/07/12 11:10:37;;;;;;;9.35;3.78;;;;;;;;;;5059071;28;20171;-91
2023/07/12 11:13:13;;;;;;;10.10;4.03;;;;;;;;;;5059113;28;20171;-90
2023/07/12 11:15:53;;;;;;;7.00;2.67;;;;;;;;;;5059742;28;20171;-89
2023/07/12 11:18:24;;;;;;;8.10;3.40;;;;;;;;;;5057695;28;20430;-89
2023/07/12 11:20:59;;;;;;;9.20;3.22;;;;;;;;;;5059506;28;20171;-91
2023/07/12 11:23:38;;;;;;;5.95;2.58;;;;;;;;;;5059336;28;20178;-91
2023/07/12 11:26:30;;;;;;;7.45;3.20;;;;;;;;;;5059119;28;20185;-92
2023/07/12 11:29:18;;;;;;;8.00;3.30;;;;;;;;;;5039047;28;20279;-93
2023/07/12 11:31:48;;;;;;;7.50;2.75;;;;;;;;;;5038540;28;20196;-92
2023/07/12 11:34:25;;;;;;;8.15;2.63;;;;;;;;;;5035500;28;20200;-91
2023/07/12 11:36:55;;;;;;;6.57;2.88;;;;;;;;;;5034713;28;20177;-91
2023/07/12 11:39:23;;;;;;;8.20;3.03;;;;;;;;;;5018254;28;20177;-90
2023/07/12 11:42:08;;;;;;;8.80;3.10;;;;;;;;;;5027852;28;20211;-89
2023/07/12 11:44:34;;;;;;;8.82;3.42;;;;;;;;;;5026475;28;20208;-92
2023/07/12 11:47:12;;;;;;;6.93;3.47;;;;;;;;;;5030053;28;20187;-88
2023/07/12 11:50:21;;;;;;;7.57;3.42;;;;;;;;;;5018397;28;20177;-90
2023/07/12 11:52:34;;;;;;;7.38;3.20;;;;;;;;;;5037111;28;20207;-92
2023/07/12 11:55:07;;;;;;;8.18;3.55;;;;;;;;;;5054591;28;20180;-92
2023/07/12 11:57:45;;;;;;;8.27;3.10;;;;;;;;;;5044740;28;20199;-92
2023/07/12 12:00:23;;;;;;;6.70;2.95;;;;;;;;;;5037093;28;20219;-90
2023/07/12 12:02:51;;;;;;;7.30;2.50;;;;;;;;;;5037673;28;20176;-88
2023/07/12 12:05:21;;;;;;;5.45;2.50;;;;;;;;;;5037209;28;20208;-91
2023/07/12 12:07:50;;;;;;;6.38;2.60;;;;;;;;;;5044598;28;20203;-89
2023/07/12 12:10:20;;;;;;;10.63;3.00;;;;;;;;;;5036884;28;20183;-89
2023/07/12 12:12:49;;;;;;;5.95;2.92;;;;;;;;;;5036542;28;20180;-89
2023/07/12 12:21:17;;;;;;;7.20;2.78;;;;;;;;;;5055173;28;20171;-90
2023/07/12 12:23:46;;;;;;;5.47;2.50;;;;;;;;;;5020294;28;20187;-90
2023/07/12 12:26:19;;;;;;;5.45;2.45;;;;;;;;;;5038025;28;20190;-89
2023/07/12 12:28:50;;;;;;;5.75;2.40;;;;;;;;;;5056818;28;20201;-89
2023/07/12 12:31:21;;;;;;;5.85;2.33;;;;;;;;;;5057007;28;20302;-89
2023/07/12 12:34:06;;;;;;;5.97;2.35;;;;;;;;;;5056587;28;20175;-90
2023/07/12 12:36:34;;;;;;;4.45;2.25;;;;;;;;;;5042943;28;20171;-91
2023/07/12 12:39:09;;;;;;;7.20;2.30;;;;;;;;;;5056114;28;20497;-89
2023/07/12 12:41:43;;;;;;;8.13;2.50;;;;;;;;;;5053623;28;20191;-92
2023/07/12 12:44:12;;;;;;;6.85;2.80;;;;;;;;;;5042400;28;20187;-89
2023/07/12 12:46:42;;;;;;;5.80;2.55;;;;;;;;;;5055284;28;20262;-89
2023/07/12 12:49:18;;;;;;;7.13;2.72;;;;;;;;;;5055777;28;20183;-90
2023/07/12 12:51:44;;;;;;;5.78;2.55;;;;;;;;;;5054558;28;20262;-90
2023/07/12 12:54:12;;;;;;;7.53;2.60;;;;;;;;;;5045532;28;20186;-90
2023/07/12 12:56:38;;;;;;;5.90;2.40;;;;;;;;;;5044307;28;20262;-89
2023/07/12 12:59:08;;;;;;;7.22;2.42;;;;;;;;;;5052068;28;20253;-91
2023/07/12 13:01:37;;;;;;;9.32;3.40;;;;;;;;;;5056658;28;20183;-89
2023/07/12 13:04:03;;;;;;;5.55;2.90;;;;;;;;;;5055907;28;20203;-90
2023/07/12 13:06:29;;;;;;;5.63;2.55;;;;;;;;;;5044824;28;20184;-91
2023/07/12 13:08:57;;;;;;;4.32;2.38;;;;;;;;;;5049642;28;20183;-90
2023/07/12 13:11:23;;;;;;;6.65;2.63;;;;;;;;;;5055704;28;20269;-87
2023/07/12 13:13:49;;;;;;;7.82;2.53;;;;;;;;;;5055971;28;20179;-90
2023/07/12 13:16:21;;;;;;;6.85;2.70;;;;;;;;;;5056489;28;20179;-91
2023/07/12 13:18:47;;;;;;;3.97;2.20;;;;;;;;;;5056730;28;20187;-89
2023/07/12 13:21:21;;;;;;;6.15;2.20;;;;;;;;;;5053519;28;20217;-89
2023/07/12 13:23:48;;;;;;;5.43;2.20;;;;;;;;;;5056101;28;20183;-91
2023/07/12 13:26:15;;;;;;;3.85;2.15;;;;;;;;;;5055632;28;20189;-89
2023/07/12 13:28:42;;;;;;;3.78;1.90;;;;;;;;;;5055942;28;20211;-89
2023/07/12 13:31:12;;;;;;;4.53;2.10;;;;;;;;;;5050244;28;20210;-90
2023/07/12 13:33:39;;;;;;;4.22;1.90;;;;;;;;;;5052593;28;20210;-88
2023/07/12 13:36:05;;;;;;;4.72;2.08;;;;;;;;;;5047699;28;20230;-89
2023/07/12 13:38:32;;;;;;;2.72;1.70;;;;;;;;;;5042488;28;20271;-89
2023/07/12 13:41:02;;;;;;;3.30;1.55;;;;;;;;;;5055703;28;20175;-91
2023/07/12 13:43:29;;;;;;;8.85;2.00;;;;;;;;;;5054346;28;20247;-90
2023/07/12 13:45:56;;;;;;;4.72;1.88;;;;;;;;;;5055418;28;20183;-88
2023/07/12 13:48:26;;;;;;;4.05;1.80;;;;;;;;;;5055718;28;20197;-89
2023/07/12 13:50:52;;;;;;;5.68;1.67;;;;;;;;;;5055366;28;20210;-89
2023/07/12 13:53:21;;;;;;;3.55;1.55;;;;;;;;;;5055974;28;20180;-88
2023/07/12 13:55:47;;;;;;;5.57;1.70;;;;;;;;;;5055645;28;20179;-91
2023/07/12 13:58:13;;;;;;;3.15;1.42;;;;;;;;;;5052308;28;20186;-89
2023/07/12 14:00:39;;;;;;;3.13;1.30;;;;;;;;;;5034024;28;20234;-89
2023/07/12 14:03:09;;;;;;;3.08;1.50;;;;;;;;;;5042438;28;20247;-89
2023/07/12 14:05:35;;;;;;;2.97;1.40;;;;;;;;;;5043097;28;20191;-90
2023/07/12 14:08:04;;;;;;;2.30;1.60;;;;;;;;;;5059312;28;20211;-92
2023/07/12 14:10:30;;;;;;;3.60;1.60;;;;;;;;;;5027278;28;20247;-91
2023/07/12 14:12:59;;;;;;;2.92;1.63;;;;;;;;;;5039559;28;20226;-90
2023/07/12 14:15:29;;;;;;;3.10;1.33;;;;;;;;;;5055727;28;20161;-90
2023/07/12 14:17:55;;;;;;;2.80;1.45;;;;;;;;;;5059049;28;20271;-90
2023/07/12 14:20:21;;;;;;;3.60;1.20;;;;;;;;;;5059093;28;20175;-91
2023/07/12 14:22:50;;;;;;;2.25;1.20;;;;;;;;;;5050096;28;20270;-92
2023/07/12 14:25:19;;;;;;;3.50;1.40;;;;;;;;;;5057121;28;20183;-90
2023/07/12 14:27:48;;;;;;;3.40;1.35;;;;;;;;;;5053847;28;20228;-90
2023/07/12 14:30:14;;;;;;;3.83;1.63;;;;;;;;;;5050975;28;20231;-90
2023/07/12 14:32:42;;;;;;;3.00;1.67;;;;;;;;;;5054775;28;20238;-88
2023/07/12 14:35:17;;;;;;;3.28;1.50;;;;;;;;;;5052204;28;20182;-90
2023/07/12 14:37:46;;;;;;;2.63;1.30;;;;;;;;;;5054138;28;20213;-91
2023/07/12 14:40:44;;;;;;;4.00;1.63;;;;;;;;;;5054332;28;20176;-91
2023/07/12 14:43:14;;;;;;;2.47;1.40;;;;;;;;;;5038548;28;20191;-89
2023/07/12 14:45:49;;;;;;;3.20;1.60;;;;;;;;;;5054516;28;20270;-92
2023/07/12 14:48:18;;;;;;;3.92;1.80;;;;;;;;;;5055721;28;20184;-89
2023/07/12 14:50:45;;;;;;;4.25;1.58;;;;;;;;;;5055480;28;20281;-91
2023/07/12 14:53:12;;;;;;;3.20;1.60;;;;;;;;;;5055713;28;20172;-88
2023/07/12 14:55:41;;;;;;;4.50;1.52;;;;;;;;;;5055347;28;20176;-93
2023/07/12 14:58:15;;;;;;;4.63;1.73;;;;;;;;;;5054937;28;20172;-92
2023/07/12 15:00:42;;;;;;;3.03;1.70;;;;;;;;;;5039935;28;20210;-90
2023/07/12 15:03:17;;;;;;;5.30;2.10;;;;;;;;;;5055921;28;20178;-92